sensor_id;sensor_type;location;lat;lon;timestamp;P1;durP1;ratioP1;P2;durP2;ratioP2
4963;SDS011;2497;47.410;9.740;2022-09-30T00:01:06;13.80;;;2.97;;
4963;SDS011;2497;47.410;9.740;2022-09-30T00:03:34;6.50;;;4.10;;
4963;SDS011;2497;47.410;9.740;2022-09-30T00:06:02;4.40;;;3.27;;
4963;SDS011;2497;47.410;9.740;2022-09-30T00:08:33;8.37;;;3.10;;
4963;SDS011;2497;47.410;9.740;2022-09-30T00:11:01;8.50;;;3.17;;
4963;SDS011;2497;47.410;9.740;2022-09-30T00:13:30;5.70;;;2.93;;
4963;SDS011;2497;47.410;9.740;2022-09-30T00:15:59;5.33;;;3.17;;
4963;SDS011;2497;47.410;9.740;2022-09-30T00:18:27;4.07;;;3.43;;
4963;SDS011;2497;47.410;9.740;2022-09-30T00:20:54;7.00;;;3.80;;
4963;SDS011;2497;47.410;9.740;2022-09-30T00:23:23;3.63;;;3.10;;
4963;SDS011;2497;47.410;9.740;2022-09-30T00:25:55;4.30;;;2.80;;
4963;SDS011;2497;47.410;9.740;2022-09-30T00:28:25;4.70;;;2.43;;
4963;SDS011;2497;47.410;9.740;2022-09-30T00:30:53;3.77;;;2.60;;
4963;SDS011;2497;47.410;9.740;2022-09-30T00:33:24;4.23;;;2.03;;
4963;SDS011;2497;47.410;9.740;2022-09-30T00:35:51;4.40;;;3.10;;
4963;SDS011;2497;47.410;9.740;2022-09-30T00:38:19;2.67;;;2.13;;
4963;SDS011;2497;47.410;9.740;2022-09-30T00:40:46;3.47;;;2.40;;
4963;SDS011;2497;47.410;9.740;2022-09-30T00:43:16;4.97;;;2.33;;
4963;SDS011;2497;47.410;9.740;2022-09-30T00:45:48;6.80;;;3.37;;
4963;SDS011;2497;47.410;9.740;2022-09-30T00:48:19;8.33;;;3.63;;
4963;SDS011;2497;47.410;9.740;2022-09-30T00:50:52;2.53;;;1.60;;
4963;SDS011;2497;47.410;9.740;2022-09-30T00:53:21;4.30;;;2.37;;
4963;SDS011;2497;47.410;9.740;2022-09-30T00:55:54;4.00;;;2.70;;
4963;SDS011;2497;47.410;9.740;2022-09-30T00:58:28;5.17;;;2.90;;
4963;SDS011;2497;47.410;9.740;2022-09-30T01:01:02;3.27;;;1.87;;
4963;SDS011;2497;47.410;9.740;2022-09-30T01:03:30;5.20;;;3.33;;
4963;SDS011;2497;47.410;9.740;2022-09-30T01:05:59;6.27;;;4.30;;
4963;SDS011;2497;47.410;9.740;2022-09-30T01:08:27;2.63;;;2.23;;
4963;SDS011;2497;47.410;9.740;2022-09-30T01:10:58;5.23;;;2.67;;
4963;SDS011;2497;47.410;9.740;2022-09-30T01:13:25;4.83;;;3.30;;
4963;SDS011;2497;47.410;9.740;2022-09-30T01:18:59;6.40;;;2.90;;
4963;SDS011;2497;47.410;9.740;2022-09-30T01:21:48;7.47;;;3.10;;
4963;SDS011;2497;47.410;9.740;2022-09-30T01:24:46;3.50;;;1.90;;
4963;SDS011;2497;47.410;9.740;2022-09-30T01:27:33;3.70;;;1.73;;
4963;SDS011;2497;47.410;9.740;2022-09-30T01:30:15;3.80;;;2.00;;
4963;SDS011;2497;47.410;9.740;2022-09-30T01:32:55;4.03;;;2.67;;
4963;SDS011;2497;47.410;9.740;2022-09-30T01:35:48;5.77;;;3.47;;
4963;SDS011;2497;47.410;9.740;2022-09-30T01:38:25;4.77;;;2.80;;
4963;SDS011;2497;47.410;9.740;2022-09-30T01:40:57;3.50;;;2.13;;
4963;SDS011;2497;47.410;9.740;2022-09-30T01:43:29;3.50;;;1.80;;
4963;SDS011;2497;47.410;9.740;2022-09-30T01:46:09;3.70;;;2.30;;
4963;SDS011;2497;47.410;9.740;2022-09-30T01:48:48;4.13;;;2.07;;
4963;SDS011;2497;47.410;9.740;2022-09-30T01:51:24;4.80;;;1.90;;
4963;SDS011;2497;47.410;9.740;2022-09-30T01:54:02;3.83;;;2.17;;
4963;SDS011;2497;47.410;9.740;2022-09-30T01:56:38;8.20;;;2.07;;
4963;SDS011;2497;47.410;9.740;2022-09-30T01:59:10;4.00;;;2.43;;
4963;SDS011;2497;47.410;9.740;2022-09-30T02:01:43;3.03;;;2.43;;
4963;SDS011;2497;47.410;9.740;2022-09-30T02:04:18;5.80;;;2.57;;
4963;SDS011;2497;47.410;9.740;2022-09-30T02:06:49;4.50;;;2.33;;
4963;SDS011;2497;47.410;9.740;2022-09-30T02:09:21;2.17;;;1.50;;
4963;SDS011;2497;47.410;9.740;2022-09-30T02:11:53;4.07;;;2.43;;
4963;SDS011;2497;47.410;9.740;2022-09-30T02:14:24;6.53;;;2.83;;
4963;SDS011;2497;47.410;9.740;2022-09-30T02:16:57;1.87;;;1.40;;
4963;SDS011;2497;47.410;9.740;2022-09-30T02:19:31;2.40;;;1.97;;
4963;SDS011;2497;47.410;9.740;2022-09-30T02:22:05;2.00;;;1.50;;
4963;SDS011;2497;47.410;9.740;2022-09-30T02:24:36;2.40;;;1.33;;
4963;SDS011;2497;47.410;9.740;2022-09-30T02:27:06;2.70;;;1.83;;
4963;SDS011;2497;47.410;9.740;2022-09-30T02:29:39;4.07;;;2.00;;
4963;SDS011;2497;47.410;9.740;2022-09-30T02:32:12;5.50;;;2.40;;
4963;SDS011;2497;47.410;9.740;2022-09-30T02:34:46;1.90;;;1.80;;
4963;SDS011;2497;47.410;9.740;2022-09-30T02:37:18;2.00;;;1.50;;
4963;SDS011;2497;47.410;9.740;2022-09-30T02:39:50;2.27;;;1.50;;
4963;SDS011;2497;47.410;9.740;2022-09-30T02:42:22;3.27;;;2.07;;
4963;SDS011;2497;47.410;9.740;2022-09-30T02:44:53;3.00;;;1.80;;
4963;SDS011;2497;47.410;9.740;2022-09-30T02:47:25;3.93;;;2.23;;
4963;SDS011;2497;47.410;9.740;2022-09-30T02:50:01;2.63;;;1.60;;
4963;SDS011;2497;47.410;9.740;2022-09-30T02:52:39;2.93;;;2.40;;
4963;SDS011;2497;47.410;9.740;2022-09-30T02:57:51;2.70;;;1.70;;
4963;SDS011;2497;47.410;9.740;2022-09-30T03:00:22;2.97;;;2.00;;
4963;SDS011;2497;47.410;9.740;2022-09-30T03:02:50;6.10;;;2.90;;
4963;SDS011;2497;47.410;9.740;2022-09-30T03:05:23;5.17;;;2.73;;
4963;SDS011;2497;47.410;9.740;2022-09-30T03:07:50;3.50;;;2.47;;
4963;SDS011;2497;47.410;9.740;2022-09-30T03:10:18;3.60;;;2.23;;
4963;SDS011;2497;47.410;9.740;2022-09-30T03:12:51;3.77;;;2.40;;
4963;SDS011;2497;47.410;9.740;2022-09-30T03:15:33;2.90;;;2.10;;
4963;SDS011;2497;47.410;9.740;2022-09-30T03:21:09;4.33;;;3.13;;
4963;SDS011;2497;47.410;9.740;2022-09-30T03:23:55;4.37;;;2.40;;
4963;SDS011;2497;47.410;9.740;2022-09-30T03:26:37;4.00;;;2.77;;
4963;SDS011;2497;47.410;9.740;2022-09-30T03:29:12;4.07;;;2.20;;
4963;SDS011;2497;47.410;9.740;2022-09-30T03:31:49;7.30;;;2.97;;
4963;SDS011;2497;47.410;9.740;2022-09-30T03:34:28;4.10;;;2.87;;
4963;SDS011;2497;47.410;9.740;2022-09-30T03:37:01;10.80;;;2.93;;
4963;SDS011;2497;47.410;9.740;2022-09-30T03:39:38;3.03;;;2.37;;
4963;SDS011;2497;47.410;9.740;2022-09-30T03:42:17;8.50;;;2.70;;
4963;SDS011;2497;47.410;9.740;2022-09-30T03:44:55;4.57;;;2.70;;
4963;SDS011;2497;47.410;9.740;2022-09-30T03:47:28;4.23;;;2.77;;
4963;SDS011;2497;47.410;9.740;2022-09-30T03:50:00;3.60;;;2.40;;
4963;SDS011;2497;47.410;9.740;2022-09-30T03:52:31;5.83;;;4.07;;
4963;SDS011;2497;47.410;9.740;2022-09-30T03:55:00;4.70;;;2.40;;
4963;SDS011;2497;47.410;9.740;2022-09-30T03:57:32;5.90;;;2.27;;
4963;SDS011;2497;47.410;9.740;2022-09-30T03:59:59;2.63;;;1.67;;
4963;SDS011;2497;47.410;9.740;2022-09-30T04:02:28;3.23;;;1.43;;
4963;SDS011;2497;47.410;9.740;2022-09-30T04:04:55;1.93;;;1.33;;
4963;SDS011;2497;47.410;9.740;2022-09-30T04:07:23;1.83;;;1.00;;
4963;SDS011;2497;47.410;9.740;2022-09-30T04:09:52;1.97;;;1.33;;
4963;SDS011;2497;47.410;9.740;2022-09-30T04:12:20;1.67;;;1.00;;
4963;SDS011;2497;47.410;9.740;2022-09-30T04:14:47;1.93;;;1.20;;
4963;SDS011;2497;47.410;9.740;2022-09-30T04:17:15;2.40;;;1.07;;
4963;SDS011;2497;47.410;9.740;2022-09-30T04:19:43;2.47;;;1.30;;
4963;SDS011;2497;47.410;9.740;2022-09-30T04:22:10;1.00;;;0.83;;
4963;SDS011;2497;47.410;9.740;2022-09-30T04:24:38;1.97;;;1.40;;
4963;SDS011;2497;47.410;9.740;2022-09-30T04:27:07;1.30;;;1.20;;
4963;SDS011;2497;47.410;9.740;2022-09-30T04:29:34;1.97;;;1.20;;
4963;SDS011;2497;47.410;9.740;2022-09-30T04:32:02;1.63;;;1.17;;
4963;SDS011;2497;47.410;9.740;2022-09-30T04:34:29;3.37;;;2.47;;
4963;SDS011;2497;47.410;9.740;2022-09-30T04:36:59;6.20;;;2.37;;
4963;SDS011;2497;47.410;9.740;2022-09-30T04:45:37;2.50;;;2.30;;
4963;SDS011;2497;47.410;9.740;2022-09-30T04:48:10;2.83;;;2.17;;
4963;SDS011;2497;47.410;9.740;2022-09-30T04:51:17;6.27;;;3.37;;
4963;SDS011;2497;47.410;9.740;2022-09-30T04:53:46;2.93;;;2.40;;
4963;SDS011;2497;47.410;9.740;2022-09-30T04:56:14;4.70;;;2.37;;
4963;SDS011;2497;47.410;9.740;2022-09-30T05:04:45;2.23;;;1.67;;
4963;SDS011;2497;47.410;9.740;2022-09-30T05:07:13;3.53;;;2.67;;
4963;SDS011;2497;47.410;9.740;2022-09-30T05:09:40;4.27;;;2.63;;
4963;SDS011;2497;47.410;9.740;2022-09-30T05:12:07;4.37;;;2.20;;
4963;SDS011;2497;47.410;9.740;2022-09-30T05:14:35;3.53;;;2.37;;
4963;SDS011;2497;47.410;9.740;2022-09-30T05:17:02;2.70;;;2.23;;
4963;SDS011;2497;47.410;9.740;2022-09-30T05:19:32;4.30;;;2.37;;
4963;SDS011;2497;47.410;9.740;2022-09-30T05:21:59;3.80;;;2.47;;
4963;SDS011;2497;47.410;9.740;2022-09-30T05:24:27;3.23;;;2.00;;
4963;SDS011;2497;47.410;9.740;2022-09-30T05:26:55;6.43;;;2.13;;
4963;SDS011;2497;47.410;9.740;2022-09-30T05:29:22;3.63;;;1.87;;
4963;SDS011;2497;47.410;9.740;2022-09-30T05:31:49;5.37;;;2.57;;
4963;SDS011;2497;47.410;9.740;2022-09-30T05:34:17;5.70;;;2.47;;
4963;SDS011;2497;47.410;9.740;2022-09-30T05:36:46;5.63;;;2.80;;
4963;SDS011;2497;47.410;9.740;2022-09-30T05:39:15;5.47;;;3.50;;
4963;SDS011;2497;47.410;9.740;2022-09-30T05:41:42;8.83;;;4.33;;
4963;SDS011;2497;47.410;9.740;2022-09-30T05:44:10;5.90;;;3.70;;
4963;SDS011;2497;47.410;9.740;2022-09-30T05:46:38;6.00;;;3.33;;
4963;SDS011;2497;47.410;9.740;2022-09-30T05:49:05;6.07;;;2.50;;
4963;SDS011;2497;47.410;9.740;2022-09-30T05:51:33;5.43;;;3.17;;
4963;SDS011;2497;47.410;9.740;2022-09-30T05:54:02;3.83;;;2.70;;
4963;SDS011;2497;47.410;9.740;2022-09-30T05:56:29;4.17;;;3.10;;
4963;SDS011;2497;47.410;9.740;2022-09-30T05:58:58;4.37;;;2.70;;
4963;SDS011;2497;47.410;9.740;2022-09-30T06:01:26;8.13;;;2.83;;
4963;SDS011;2497;47.410;9.740;2022-09-30T06:03:53;9.00;;;4.83;;
4963;SDS011;2497;47.410;9.740;2022-09-30T06:06:21;7.60;;;2.80;;
4963;SDS011;2497;47.410;9.740;2022-09-30T06:08:49;6.07;;;3.87;;
4963;SDS011;2497;47.410;9.740;2022-09-30T06:11:19;5.90;;;2.80;;
4963;SDS011;2497;47.410;9.740;2022-09-30T06:13:49;6.27;;;3.10;;
4963;SDS011;2497;47.410;9.740;2022-09-30T06:16:17;10.57;;;3.40;;
4963;SDS011;2497;47.410;9.740;2022-09-30T06:18:45;4.50;;;3.60;;
4963;SDS011;2497;47.410;9.740;2022-09-30T06:25:21;4.00;;;2.83;;
4963;SDS011;2497;47.410;9.740;2022-09-30T06:27:59;3.23;;;1.97;;
4963;SDS011;2497;47.410;9.740;2022-09-30T06:30:26;2.63;;;2.27;;
4963;SDS011;2497;47.410;9.740;2022-09-30T06:32:55;4.37;;;2.30;;
4963;SDS011;2497;47.410;9.740;2022-09-30T06:35:22;2.10;;;1.70;;
4963;SDS011;2497;47.410;9.740;2022-09-30T06:37:53;2.70;;;2.27;;
4963;SDS011;2497;47.410;9.740;2022-09-30T06:40:20;2.80;;;2.07;;
4963;SDS011;2497;47.410;9.740;2022-09-30T06:42:49;1.63;;;1.53;;
4963;SDS011;2497;47.410;9.740;2022-09-30T06:48:56;4.37;;;3.00;;
4963;SDS011;2497;47.410;9.740;2022-09-30T06:51:24;2.93;;;2.63;;
4963;SDS011;2497;47.410;9.740;2022-09-30T06:53:57;3.80;;;3.30;;
4963;SDS011;2497;47.410;9.740;2022-09-30T06:57:17;5.43;;;2.97;;
4963;SDS011;2497;47.410;9.740;2022-09-30T07:00:03;6.50;;;3.93;;
4963;SDS011;2497;47.410;9.740;2022-09-30T07:02:59;3.73;;;2.43;;
4963;SDS011;2497;47.410;9.740;2022-09-30T07:05:28;5.83;;;2.70;;
4963;SDS011;2497;47.410;9.740;2022-09-30T07:07:55;5.07;;;4.27;;
4963;SDS011;2497;47.410;9.740;2022-09-30T07:10:25;6.80;;;2.80;;
4963;SDS011;2497;47.410;9.740;2022-09-30T07:12:52;5.10;;;3.03;;
4963;SDS011;2497;47.410;9.740;2022-09-30T07:15:20;7.00;;;3.47;;
4963;SDS011;2497;47.410;9.740;2022-09-30T07:17:51;6.10;;;3.37;;
4963;SDS011;2497;47.410;9.740;2022-09-30T07:20:20;3.50;;;2.97;;
4963;SDS011;2497;47.410;9.740;2022-09-30T07:22:50;10.30;;;3.40;;
4963;SDS011;2497;47.410;9.740;2022-09-30T07:28:36;6.47;;;3.30;;
4963;SDS011;2497;47.410;9.740;2022-09-30T07:31:06;5.53;;;3.50;;
4963;SDS011;2497;47.410;9.740;2022-09-30T07:33:36;5.40;;;3.73;;
4963;SDS011;2497;47.410;9.740;2022-09-30T07:36:05;8.43;;;4.20;;
4963;SDS011;2497;47.410;9.740;2022-09-30T07:38:35;4.97;;;3.30;;
4963;SDS011;2497;47.410;9.740;2022-09-30T07:41:05;6.27;;;3.40;;
4963;SDS011;2497;47.410;9.740;2022-09-30T07:43:35;8.23;;;3.40;;
4963;SDS011;2497;47.410;9.740;2022-09-30T07:46:04;8.40;;;4.63;;
4963;SDS011;2497;47.410;9.740;2022-09-30T07:48:33;6.40;;;3.83;;
4963;SDS011;2497;47.410;9.740;2022-09-30T07:51:12;8.30;;;3.50;;
4963;SDS011;2497;47.410;9.740;2022-09-30T07:53:44;4.00;;;2.83;;
4963;SDS011;2497;47.410;9.740;2022-09-30T07:56:12;6.60;;;4.13;;
4963;SDS011;2497;47.410;9.740;2022-09-30T07:58:40;5.93;;;3.23;;
4963;SDS011;2497;47.410;9.740;2022-09-30T08:01:08;8.17;;;4.50;;
4963;SDS011;2497;47.410;9.740;2022-09-30T08:03:37;10.13;;;5.23;;
4963;SDS011;2497;47.410;9.740;2022-09-30T08:06:09;6.77;;;4.60;;
4963;SDS011;2497;47.410;9.740;2022-09-30T08:08:38;7.87;;;4.00;;
4963;SDS011;2497;47.410;9.740;2022-09-30T08:11:07;6.13;;;3.90;;
4963;SDS011;2497;47.410;9.740;2022-09-30T08:13:35;7.20;;;3.63;;
4963;SDS011;2497;47.410;9.740;2022-09-30T08:16:03;7.00;;;3.33;;
4963;SDS011;2497;47.410;9.740;2022-09-30T08:18:32;5.53;;;3.50;;
4963;SDS011;2497;47.410;9.740;2022-09-30T08:21:13;4.60;;;3.20;;
4963;SDS011;2497;47.410;9.740;2022-09-30T08:23:40;4.80;;;3.47;;
4963;SDS011;2497;47.410;9.740;2022-09-30T08:26:10;5.93;;;3.67;;
4963;SDS011;2497;47.410;9.740;2022-09-30T08:28:39;8.63;;;4.10;;
4963;SDS011;2497;47.410;9.740;2022-09-30T08:31:12;12.20;;;4.70;;
4963;SDS011;2497;47.410;9.740;2022-09-30T08:33:41;5.57;;;4.10;;
4963;SDS011;2497;47.410;9.740;2022-09-30T08:36:09;7.10;;;4.30;;
4963;SDS011;2497;47.410;9.740;2022-09-30T08:38:38;7.10;;;4.47;;
4963;SDS011;2497;47.410;9.740;2022-09-30T08:44:00;7.33;;;3.30;;
4963;SDS011;2497;47.410;9.740;2022-09-30T08:46:42;6.20;;;4.17;;
4963;SDS011;2497;47.410;9.740;2022-09-30T08:52:01;7.97;;;4.73;;
4963;SDS011;2497;47.410;9.740;2022-09-30T08:54:36;7.00;;;3.70;;
4963;SDS011;2497;47.410;9.740;2022-09-30T08:57:12;9.70;;;5.00;;
4963;SDS011;2497;47.410;9.740;2022-09-30T08:59:41;18.37;;;5.10;;
4963;SDS011;2497;47.410;9.740;2022-09-30T09:02:13;8.43;;;4.70;;
4963;SDS011;2497;47.410;9.740;2022-09-30T09:04:44;8.03;;;4.17;;
4963;SDS011;2497;47.410;9.740;2022-09-30T09:07:16;11.10;;;4.97;;
4963;SDS011;2497;47.410;9.740;2022-09-30T09:09:57;5.10;;;3.57;;
4963;SDS011;2497;47.410;9.740;2022-09-30T09:12:40;6.10;;;3.20;;
4963;SDS011;2497;47.410;9.740;2022-09-30T09:15:19;5.97;;;4.07;;
4963;SDS011;2497;47.410;9.740;2022-09-30T09:18:02;8.73;;;4.53;;
4963;SDS011;2497;47.410;9.740;2022-09-30T09:20:40;8.73;;;3.93;;
4963;SDS011;2497;47.410;9.740;2022-09-30T09:23:19;8.70;;;4.93;;
4963;SDS011;2497;47.410;9.740;2022-09-30T09:25:47;5.30;;;2.70;;
4963;SDS011;2497;47.410;9.740;2022-09-30T09:28:24;11.10;;;5.00;;
4963;SDS011;2497;47.410;9.740;2022-09-30T09:30:59;15.83;;;5.77;;
4963;SDS011;2497;47.410;9.740;2022-09-30T09:33:29;8.93;;;4.90;;
4963;SDS011;2497;47.410;9.740;2022-09-30T09:36:00;8.83;;;4.73;;
4963;SDS011;2497;47.410;9.740;2022-09-30T09:38:51;6.90;;;4.77;;
4963;SDS011;2497;47.410;9.740;2022-09-30T09:41:41;7.40;;;4.87;;
4963;SDS011;2497;47.410;9.740;2022-09-30T09:44:20;6.00;;;3.27;;
4963;SDS011;2497;47.410;9.740;2022-09-30T09:46:52;12.00;;;5.47;;
4963;SDS011;2497;47.410;9.740;2022-09-30T09:49:29;6.90;;;3.97;;
4963;SDS011;2497;47.410;9.740;2022-09-30T09:52:32;10.87;;;4.70;;
4963;SDS011;2497;47.410;9.740;2022-09-30T09:55:11;6.27;;;3.50;;
4963;SDS011;2497;47.410;9.740;2022-09-30T09:57:40;7.77;;;4.60;;
4963;SDS011;2497;47.410;9.740;2022-09-30T10:00:10;9.53;;;4.90;;
4963;SDS011;2497;47.410;9.740;2022-09-30T10:03:08;8.33;;;4.93;;
4963;SDS011;2497;47.410;9.740;2022-09-30T10:05:42;9.70;;;3.13;;
4963;SDS011;2497;47.410;9.740;2022-09-30T10:08:14;9.13;;;4.30;;
4963;SDS011;2497;47.410;9.740;2022-09-30T10:10:44;6.53;;;3.97;;
4963;SDS011;2497;47.410;9.740;2022-09-30T10:13:22;8.20;;;3.67;;
4963;SDS011;2497;47.410;9.740;2022-09-30T10:15:53;5.60;;;3.63;;
4963;SDS011;2497;47.410;9.740;2022-09-30T10:18:23;6.80;;;3.50;;
4963;SDS011;2497;47.410;9.740;2022-09-30T10:20:54;7.23;;;3.03;;
4963;SDS011;2497;47.410;9.740;2022-09-30T10:23:28;5.30;;;3.50;;
4963;SDS011;2497;47.410;9.740;2022-09-30T10:25:59;6.80;;;3.57;;
4963;SDS011;2497;47.410;9.740;2022-09-30T10:28:29;7.17;;;3.37;;
4963;SDS011;2497;47.410;9.740;2022-09-30T10:31:01;5.20;;;3.23;;
4963;SDS011;2497;47.410;9.740;2022-09-30T10:33:35;5.53;;;2.80;;
4963;SDS011;2497;47.410;9.740;2022-09-30T10:36:08;4.37;;;3.60;;
4963;SDS011;2497;47.410;9.740;2022-09-30T10:38:47;10.27;;;4.47;;
4963;SDS011;2497;47.410;9.740;2022-09-30T10:41:24;6.73;;;2.90;;
4963;SDS011;2497;47.410;9.740;2022-09-30T10:43:54;6.17;;;4.00;;
4963;SDS011;2497;47.410;9.740;2022-09-30T10:46:26;4.83;;;3.27;;
4963;SDS011;2497;47.410;9.740;2022-09-30T10:48:56;7.40;;;4.10;;
4963;SDS011;2497;47.410;9.740;2022-09-30T10:51:28;6.50;;;3.90;;
4963;SDS011;2497;47.410;9.740;2022-09-30T10:54:00;7.57;;;4.10;;
4963;SDS011;2497;47.410;9.740;2022-09-30T10:56:33;3.73;;;3.00;;
4963;SDS011;2497;47.410;9.740;2022-09-30T10:59:03;5.63;;;4.40;;
4963;SDS011;2497;47.410;9.740;2022-09-30T11:01:42;6.93;;;3.23;;
4963;SDS011;2497;47.410;9.740;2022-09-30T11:04:14;3.97;;;2.67;;
4963;SDS011;2497;47.410;9.740;2022-09-30T11:06:53;7.83;;;2.97;;
4963;SDS011;2497;47.410;9.740;2022-09-30T11:09:28;6.03;;;4.73;;
4963;SDS011;2497;47.410;9.740;2022-09-30T11:12:02;6.80;;;4.30;;
4963;SDS011;2497;47.410;9.740;2022-09-30T11:14:38;5.10;;;3.30;;
4963;SDS011;2497;47.410;9.740;2022-09-30T11:17:17;9.07;;;3.67;;
4963;SDS011;2497;47.410;9.740;2022-09-30T11:19:54;7.70;;;3.37;;
4963;SDS011;2497;47.410;9.740;2022-09-30T11:22:38;5.40;;;3.50;;
4963;SDS011;2497;47.410;9.740;2022-09-30T11:25:13;4.83;;;4.20;;
4963;SDS011;2497;47.410;9.740;2022-09-30T11:27:49;6.67;;;3.43;;
4963;SDS011;2497;47.410;9.740;2022-09-30T11:30:26;7.57;;;3.77;;
4963;SDS011;2497;47.410;9.740;2022-09-30T11:33:04;7.53;;;4.23;;
4963;SDS011;2497;47.410;9.740;2022-09-30T11:35:47;5.37;;;3.43;;
4963;SDS011;2497;47.410;9.740;2022-09-30T11:38:25;6.30;;;3.40;;
4963;SDS011;2497;47.410;9.740;2022-09-30T11:41:06;8.50;;;3.83;;
4963;SDS011;2497;47.410;9.740;2022-09-30T11:43:39;6.03;;;3.43;;
4963;SDS011;2497;47.410;9.740;2022-09-30T11:46:17;8.57;;;4.77;;
4963;SDS011;2497;47.410;9.740;2022-09-30T11:49:03;7.20;;;4.20;;
4963;SDS011;2497;47.410;9.740;2022-09-30T11:51:42;4.00;;;2.40;;
4963;SDS011;2497;47.410;9.740;2022-09-30T11:54:26;5.63;;;2.90;;
4963;SDS011;2497;47.410;9.740;2022-09-30T11:57:06;7.93;;;3.40;;
4963;SDS011;2497;47.410;9.740;2022-09-30T11:59:40;3.40;;;3.00;;
4963;SDS011;2497;47.410;9.740;2022-09-30T12:02:14;5.90;;;3.47;;
4963;SDS011;2497;47.410;9.740;2022-09-30T12:04:58;5.20;;;4.30;;
4963;SDS011;2497;47.410;9.740;2022-09-30T12:07:37;6.77;;;4.20;;
4963;SDS011;2497;47.410;9.740;2022-09-30T12:10:16;6.67;;;4.20;;
4963;SDS011;2497;47.410;9.740;2022-09-30T12:12:48;7.47;;;3.77;;
4963;SDS011;2497;47.410;9.740;2022-09-30T12:15:20;8.77;;;3.63;;
4963;SDS011;2497;47.410;9.740;2022-09-30T12:17:52;7.40;;;4.00;;
4963;SDS011;2497;47.410;9.740;2022-09-30T12:20:27;7.67;;;3.83;;
4963;SDS011;2497;47.410;9.740;2022-09-30T12:22:59;6.70;;;3.80;;
4963;SDS011;2497;47.410;9.740;2022-09-30T12:25:38;7.63;;;4.90;;
4963;SDS011;2497;47.410;9.740;2022-09-30T12:28:12;10.33;;;4.40;;
4963;SDS011;2497;47.410;9.740;2022-09-30T12:31:06;7.10;;;4.23;;
4963;SDS011;2497;47.410;9.740;2022-09-30T12:33:49;7.57;;;4.30;;
4963;SDS011;2497;47.410;9.740;2022-09-30T12:36:34;7.10;;;4.03;;
4963;SDS011;2497;47.410;9.740;2022-09-30T12:45:25;7.17;;;4.17;;
4963;SDS011;2497;47.410;9.740;2022-09-30T12:48:05;8.20;;;4.87;;
4963;SDS011;2497;47.410;9.740;2022-09-30T12:50:39;8.17;;;4.40;;
4963;SDS011;2497;47.410;9.740;2022-09-30T12:53:14;8.47;;;4.37;;
4963;SDS011;2497;47.410;9.740;2022-09-30T12:55:44;8.90;;;4.00;;
4963;SDS011;2497;47.410;9.740;2022-09-30T12:58:17;8.57;;;3.73;;
4963;SDS011;2497;47.410;9.740;2022-09-30T13:00:58;8.10;;;4.87;;
4963;SDS011;2497;47.410;9.740;2022-09-30T13:03:36;8.87;;;4.17;;
4963;SDS011;2497;47.410;9.740;2022-09-30T13:06:13;6.43;;;3.40;;
4963;SDS011;2497;47.410;9.740;2022-09-30T13:08:43;5.23;;;3.77;;
4963;SDS011;2497;47.410;9.740;2022-09-30T13:11:33;8.03;;;3.17;;
4963;SDS011;2497;47.410;9.740;2022-09-30T13:14:15;11.20;;;5.20;;
4963;SDS011;2497;47.410;9.740;2022-09-30T13:16:58;9.70;;;4.00;;
4963;SDS011;2497;47.410;9.740;2022-09-30T13:19:30;5.77;;;4.00;;
4963;SDS011;2497;47.410;9.740;2022-09-30T13:25:18;9.73;;;4.70;;
4963;SDS011;2497;47.410;9.740;2022-09-30T13:27:46;9.60;;;5.20;;
4963;SDS011;2497;47.410;9.740;2022-09-30T13:30:33;7.10;;;3.63;;
4963;SDS011;2497;47.410;9.740;2022-09-30T13:35:56;6.73;;;4.00;;
4963;SDS011;2497;47.410;9.740;2022-09-30T13:38:35;7.60;;;4.50;;
4963;SDS011;2497;47.410;9.740;2022-09-30T13:41:12;6.37;;;3.60;;
4963;SDS011;2497;47.410;9.740;2022-09-30T13:43:46;8.10;;;4.43;;
4963;SDS011;2497;47.410;9.740;2022-09-30T13:46:21;6.40;;;3.37;;
4963;SDS011;2497;47.410;9.740;2022-09-30T13:48:55;7.13;;;3.90;;
4963;SDS011;2497;47.410;9.740;2022-09-30T13:51:27;9.13;;;4.57;;
4963;SDS011;2497;47.410;9.740;2022-09-30T13:53:57;8.33;;;4.47;;
4963;SDS011;2497;47.410;9.740;2022-09-30T13:56:35;8.57;;;4.50;;
4963;SDS011;2497;47.410;9.740;2022-09-30T13:59:09;6.50;;;4.33;;
4963;SDS011;2497;47.410;9.740;2022-09-30T14:01:51;3.30;;;2.70;;
4963;SDS011;2497;47.410;9.740;2022-09-30T14:04:42;9.33;;;3.80;;
4963;SDS011;2497;47.410;9.740;2022-09-30T14:07:32;10.97;;;4.10;;
4963;SDS011;2497;47.410;9.740;2022-09-30T14:10:15;4.50;;;3.20;;
4963;SDS011;2497;47.410;9.740;2022-09-30T14:12:58;7.60;;;4.47;;
4963;SDS011;2497;47.410;9.740;2022-09-30T14:15:46;4.80;;;3.60;;
4963;SDS011;2497;47.410;9.740;2022-09-30T14:18:40;5.20;;;3.23;;
4963;SDS011;2497;47.410;9.740;2022-09-30T14:21:29;5.73;;;3.00;;
4963;SDS011;2497;47.410;9.740;2022-09-30T14:24:08;3.37;;;2.63;;
4963;SDS011;2497;47.410;9.740;2022-09-30T14:26:41;4.23;;;3.20;;
4963;SDS011;2497;47.410;9.740;2022-09-30T14:29:22;4.07;;;3.20;;
4963;SDS011;2497;47.410;9.740;2022-09-30T14:31:56;7.73;;;4.07;;
4963;SDS011;2497;47.410;9.740;2022-09-30T14:34:24;5.67;;;3.87;;
4963;SDS011;2497;47.410;9.740;2022-09-30T14:36:53;4.80;;;3.10;;
4963;SDS011;2497;47.410;9.740;2022-09-30T14:39:21;3.10;;;2.80;;
4963;SDS011;2497;47.410;9.740;2022-09-30T14:41:52;5.20;;;2.97;;
4963;SDS011;2497;47.410;9.740;2022-09-30T14:44:23;5.83;;;2.90;;
4963;SDS011;2497;47.410;9.740;2022-09-30T14:46:52;3.93;;;2.47;;
4963;SDS011;2497;47.410;9.740;2022-09-30T14:49:25;4.80;;;3.00;;
4963;SDS011;2497;47.410;9.740;2022-09-30T14:51:57;8.80;;;4.00;;
4963;SDS011;2497;47.410;9.740;2022-09-30T14:54:27;5.53;;;3.63;;
4963;SDS011;2497;47.410;9.740;2022-09-30T14:56:57;6.13;;;3.47;;
4963;SDS011;2497;47.410;9.740;2022-09-30T14:59:27;5.13;;;3.10;;
4963;SDS011;2497;47.410;9.740;2022-09-30T15:01:57;4.87;;;3.20;;
4963;SDS011;2497;47.410;9.740;2022-09-30T15:04:26;6.00;;;2.97;;
4963;SDS011;2497;47.410;9.740;2022-09-30T15:06:57;6.93;;;3.77;;
4963;SDS011;2497;47.410;9.740;2022-09-30T15:09:26;6.97;;;3.23;;
4963;SDS011;2497;47.410;9.740;2022-09-30T15:12:01;8.00;;;3.20;;
4963;SDS011;2497;47.410;9.740;2022-09-30T15:14:32;5.37;;;3.03;;
4963;SDS011;2497;47.410;9.740;2022-09-30T15:16:59;3.40;;;2.47;;
4963;SDS011;2497;47.410;9.740;2022-09-30T15:19:28;6.03;;;3.43;;
4963;SDS011;2497;47.410;9.740;2022-09-30T15:22:00;6.10;;;3.53;;
4963;SDS011;2497;47.410;9.740;2022-09-30T15:24:30;3.80;;;3.20;;
4963;SDS011;2497;47.410;9.740;2022-09-30T15:26:59;5.70;;;2.93;;
4963;SDS011;2497;47.410;9.740;2022-09-30T15:29:27;2.73;;;2.07;;
4963;SDS011;2497;47.410;9.740;2022-09-30T15:31:57;5.17;;;3.00;;
4963;SDS011;2497;47.410;9.740;2022-09-30T15:34:28;6.37;;;3.17;;
4963;SDS011;2497;47.410;9.740;2022-09-30T15:36:57;8.27;;;3.73;;
4963;SDS011;2497;47.410;9.740;2022-09-30T15:39:30;3.83;;;2.50;;
4963;SDS011;2497;47.410;9.740;2022-09-30T15:42:13;6.87;;;3.90;;
4963;SDS011;2497;47.410;9.740;2022-09-30T15:44:55;5.63;;;3.03;;
4963;SDS011;2497;47.410;9.740;2022-09-30T15:47:25;4.50;;;2.90;;
4963;SDS011;2497;47.410;9.740;2022-09-30T15:49:53;4.30;;;2.87;;
4963;SDS011;2497;47.410;9.740;2022-09-30T15:52:35;9.03;;;4.47;;
4963;SDS011;2497;47.410;9.740;2022-09-30T15:58:01;3.47;;;2.30;;
4963;SDS011;2497;47.410;9.740;2022-09-30T16:00:30;5.10;;;1.97;;
4963;SDS011;2497;47.410;9.740;2022-09-30T16:06:05;3.30;;;2.43;;
4963;SDS011;2497;47.410;9.740;2022-09-30T16:08:39;5.23;;;2.97;;
4963;SDS011;2497;47.410;9.740;2022-09-30T16:11:15;4.03;;;2.63;;
4963;SDS011;2497;47.410;9.740;2022-09-30T16:13:45;2.40;;;2.00;;
4963;SDS011;2497;47.410;9.740;2022-09-30T16:16:16;3.27;;;2.13;;
4963;SDS011;2497;47.410;9.740;2022-09-30T16:18:47;3.20;;;1.90;;
4963;SDS011;2497;47.410;9.740;2022-09-30T16:21:27;4.70;;;3.03;;
4963;SDS011;2497;47.410;9.740;2022-09-30T16:23:56;2.70;;;2.47;;
4963;SDS011;2497;47.410;9.740;2022-09-30T16:26:26;5.97;;;3.03;;
4963;SDS011;2497;47.410;9.740;2022-09-30T16:28:55;2.90;;;2.00;;
4963;SDS011;2497;47.410;9.740;2022-09-30T16:31:26;4.03;;;2.33;;
4963;SDS011;2497;47.410;9.740;2022-09-30T16:33:55;3.20;;;2.43;;
4963;SDS011;2497;47.410;9.740;2022-09-30T16:36:23;4.07;;;2.50;;
4963;SDS011;2497;47.410;9.740;2022-09-30T16:38:50;4.43;;;2.33;;
4963;SDS011;2497;47.410;9.740;2022-09-30T16:41:18;4.63;;;2.90;;
4963;SDS011;2497;47.410;9.740;2022-09-30T16:43:45;11.60;;;4.17;;
4963;SDS011;2497;47.410;9.740;2022-09-30T16:46:13;13.30;;;6.00;;
4963;SDS011;2497;47.410;9.740;2022-09-30T16:48:41;10.90;;;5.90;;